Weather History for KMDS - October, 2013

Change the Weather History Date:

Monday, October 21, 2013

  Actual Average (KFSD) Record (KFSD)
Temperature  
Mean Temperature 36 °F 46 °F  
Max Temperature 44 °F 57 °F 85 °F (1947)
Min Temperature 28 °F 34 °F 11 °F (1913)
Degree Days  
Heating Degree Days 29 19  
Month to date heating degree days 319  
Since 1 July heating degree days 523  
Cooling Degree Days 0 0  
Month to date cooling degree days 0  
Year to date cooling degree days 685  
Moisture  
Dew Point 30 °F    
Average Humidity 81    
Maximum Humidity 100    
Minimum Humidity 49    
Precipitation  
Precipitation 0.00 in 0.05 in 1.69 in (1900)
Month to date precipitation 1.65  
Year to date precipitation 23.81  
Snow  
Snow 0.00 in 0.00 in 2.10 in (1951)
Month to date snowfall 0.5  
Since 1 July snowfall 0.5  
Since 1 September snowfall 0.5  
Snow Depth -    
Sea Level Pressure  
Sea Level Pressure 29.97 in    
Wind  
Wind Speed 8 mph (WNW)    
Max Wind Speed 15 mph    
Max Gust Speed 20 mph    
Visibility 10 miles    
Events Snow    
T = Trace of Precipitation, MM = Missing Value Source: NWS Daily Summary

Daily Weather History Graph

Daily Weather History Graph

Search for Another Location

Airport or City:

Trip Planner

Search our weather history database for the weather conditions in past years. The results will help you decide how hot, cold, wet, or windy it might be!

Date:

Astronomy

Oct. 21, 2013 Rise Set
Actual Time 7:50 AM CDT 6:34 PM CDT
Civil Twilight 7:21 AM CDT 7:03 PM CDT
Nautical Twilight 6:47 AM CDT 7:37 PM CDT
Astronomical Twilight 6:14 AM CDT 8:10 PM CDT
Moon 8:22 PM CDT (10/21) 10:31 AM CDT (10/21)
Length of Visible Light 11h 42m
Length of Day
10h 43m
Waning Gibbous, 92% of the Moon is Illuminated
Oct 21
Waning Gibbous
Oct 26
Last Quarter
Nov 3
New
Nov 9
First Quarter
Nov 17
Full

Hourly Weather History & Observations

Time (CDT) Temp. Windchill Dew Point Humidity Pressure Visibility Wind Dir Wind Speed Gust Speed Precip Events Conditions
12:10 AM 32.0 °F 25.6 °F 28.4 °F 87% 30.00 in 10.0 mi NNW 6.9 mph - N/A   Overcast
12:30 AM 32.0 °F 24.8 °F 28.4 °F 87% 30.00 in 10.0 mi NNW 8.1 mph - N/A   Overcast
12:50 AM 32.0 °F 26.4 °F 28.4 °F 87% 30.00 in 10.0 mi NW 5.8 mph - N/A   Overcast
1:10 AM 32.0 °F 24.8 °F 28.4 °F 87% 30.00 in 10.0 mi WNW 8.1 mph - N/A   Overcast
1:30 AM 32.0 °F 26.4 °F 28.4 °F 87% 30.00 in 10.0 mi West 5.8 mph - N/A   Overcast
1:50 AM 32.0 °F 27.5 °F 28.4 °F 87% 30.00 in 10.0 mi WNW 4.6 mph - N/A   Overcast
2:10 AM 32.0 °F 25.6 °F 26.6 °F 80% 30.00 in 10.0 mi West 6.9 mph - N/A   Overcast
2:30 AM 32.0 °F 25.6 °F 28.4 °F 87% 30.01 in 10.0 mi West 6.9 mph - N/A   Overcast
2:50 AM 32.0 °F 25.6 °F 30.2 °F 93% 30.01 in 10.0 mi West 6.9 mph - N/A   Overcast
3:10 AM 32.0 °F 25.6 °F 28.4 °F 87% 30.01 in 10.0 mi West 6.9 mph - N/A   Overcast
3:30 AM 32.0 °F 25.6 °F 28.4 °F 87% 30.00 in 10.0 mi WNW 6.9 mph - N/A   Overcast
3:50 AM 32.0 °F 24.2 °F 28.4 °F 87% 30.01 in 10.0 mi WNW 9.2 mph - N/A   Overcast
4:10 AM 32.0 °F 24.8 °F 28.4 °F 87% 30.01 in 10.0 mi WNW 8.1 mph - N/A   Overcast
4:30 AM 32.0 °F 24.8 °F 28.4 °F 87% 30.00 in 10.0 mi WNW 8.1 mph - N/A   Overcast
4:50 AM 32.0 °F 26.4 °F 28.4 °F 87% 30.00 in 10.0 mi West 5.8 mph - N/A   Overcast
5:10 AM 32.0 °F 24.8 °F 28.4 °F 87% 30.00 in 10.0 mi West 8.1 mph - N/A   Overcast
5:30 AM 32.0 °F 25.6 °F 28.4 °F 87% 30.00 in 10.0 mi West 6.9 mph - N/A   Overcast
5:50 AM 32.0 °F 25.6 °F 30.2 °F 93% 30.00 in 10.0 mi West 6.9 mph - N/A   Mostly Cloudy
6:10 AM 32.0 °F 26.4 °F 32.0 °F 100% 30.00 in 10.0 mi WSW 5.8 mph - N/A   Overcast
6:30 AM 32.0 °F 25.6 °F 32.0 °F 100% 30.00 in 10.0 mi WSW 6.9 mph - N/A   Overcast
6:50 AM 32.0 °F 23.6 °F 32.0 °F 100% 30.00 in 10.0 mi West 10.4 mph - N/A   Overcast
7:10 AM 32.0 °F 23.6 °F 32.0 °F 100% 30.00 in 10.0 mi West 10.4 mph - N/A   Overcast
7:30 AM 32.0 °F 23.0 °F 32.0 °F 100% 30.00 in 10.0 mi West 11.5 mph 16.1 mph N/A   Scattered Clouds
7:50 AM 32.0 °F 25.6 °F 32.0 °F 100% 30.00 in 10.0 mi West 6.9 mph - N/A   Clear
8:10 AM 28.4 °F 22.2 °F 28.4 °F 100% 30.00 in 10.0 mi West 5.8 mph - N/A   Clear
8:30 AM 30.2 °F 24.3 °F 30.2 °F 100% 30.01 in 10.0 mi West 5.8 mph - N/A   Partly Cloudy
8:50 AM 32.0 °F 24.8 °F 32.0 °F 100% 30.01 in 10.0 mi West 8.1 mph - N/A   Mostly Cloudy
9:10 AM 32.0 °F 25.6 °F 32.0 °F 100% 30.01 in 10.0 mi WNW 6.9 mph - N/A   Overcast
9:30 AM 32.0 °F 24.8 °F 32.0 °F 100% 30.01 in 10.0 mi WNW 8.1 mph - N/A   Overcast
9:50 AM 33.8 °F 27.0 °F 33.8 °F 100% 30.01 in 10.0 mi WNW 8.1 mph - N/A   Overcast
10:10 AM 35.6 °F 28.0 °F 32.0 °F 87% 30.01 in 10.0 mi WNW 10.4 mph - N/A   Overcast
10:30 AM 35.6 °F 29.2 °F 32.0 °F 87% 30.01 in 10.0 mi WNW 8.1 mph - N/A   Overcast
10:50 AM 37.4 °F 30.3 °F 30.2 °F 75% 30.00 in 10.0 mi NNW 10.4 mph - N/A   Mostly Cloudy
11:10 AM 37.4 °F 30.8 °F 30.2 °F 75% 30.00 in 10.0 mi NW 9.2 mph - N/A   Partly Cloudy
11:30 AM 39.2 °F 31.6 °F 28.4 °F 65% 30.00 in 10.0 mi NW 12.7 mph 16.1 mph N/A   Partly Cloudy
11:50 AM 39.2 °F 33.0 °F 28.4 °F 65% 29.99 in 10.0 mi NW 9.2 mph - N/A   Scattered Clouds
12:10 PM 41.0 °F 33.9 °F 28.4 °F 61% 29.99 in 10.0 mi WNW 12.7 mph - N/A   Mostly Cloudy
12:30 PM 41.0 °F 33.5 °F 28.4 °F 61% 29.98 in 10.0 mi WNW 13.8 mph - N/A   Mostly Cloudy
12:50 PM 41.0 °F 34.3 °F 28.4 °F 61% 29.98 in 10.0 mi West 11.5 mph - N/A   Mostly Cloudy
1:10 PM 41.0 °F 34.3 °F 28.4 °F 61% 29.98 in 10.0 mi WNW 11.5 mph - N/A   Overcast
1:30 PM 41.0 °F 33.9 °F 26.6 °F 57% 29.97 in 10.0 mi WNW 12.7 mph 17.3 mph N/A   Overcast
1:50 PM 41.0 °F 34.3 °F 28.4 °F 61% 29.96 in 10.0 mi WNW 11.5 mph 18.4 mph N/A   Mostly Cloudy
2:10 PM 42.8 °F 37.5 °F 28.4 °F 57% 29.95 in 10.0 mi West 9.2 mph 17.3 mph N/A   Mostly Cloudy
2:30 PM 44.6 °F 37.8 °F 26.6 °F 49% 29.94 in 10.0 mi WNW 15.0 mph - N/A   Mostly Cloudy
2:50 PM 44.6 °F 38.1 °F 26.6 °F 49% 29.94 in 10.0 mi NW 13.8 mph 19.6 mph N/A   Mostly Cloudy
3:10 PM 44.6 °F 38.4 °F 26.6 °F 49% 29.94 in 10.0 mi WNW 12.7 mph - N/A   Mostly Cloudy
3:30 PM 44.6 °F 38.4 °F 28.4 °F 53% 29.93 in 10.0 mi WNW 12.7 mph - N/A   Overcast
3:50 PM 44.6 °F 38.8 °F 28.4 °F 53% 29.93 in 10.0 mi WNW 11.5 mph 17.3 mph N/A   Overcast
4:10 PM 44.6 °F 38.8 °F 28.4 °F 53% 29.93 in 10.0 mi West 11.5 mph 18.4 mph N/A   Overcast
4:30 PM 44.6 °F 39.2 °F 28.4 °F 53% 29.93 in 10.0 mi West 10.4 mph - N/A   Overcast
4:50 PM 44.6 °F 38.8 °F 28.4 °F 53% 29.93 in 10.0 mi West 11.5 mph - N/A   Overcast
5:10 PM 42.8 °F 36.6 °F 28.4 °F 57% 29.93 in 10.0 mi WNW 11.5 mph - N/A   Mostly Cloudy
5:30 PM 42.8 °F 37.5 °F 30.2 °F 61% 29.93 in 10.0 mi NW 9.2 mph - N/A   Overcast
5:50 PM 41.0 °F 35.2 °F 32.0 °F 70% 29.93 in 10.0 mi NW 9.2 mph - N/A   Overcast
6:10 PM 41.0 °F 37.1 °F 32.0 °F 70% 29.93 in 10.0 mi NW 5.8 mph - N/A   Mostly Cloudy
6:30 PM 39.2 °F 34.2 °F 32.0 °F 75% 29.93 in 10.0 mi NNW 6.9 mph - N/A   Overcast
6:50 PM 37.4 °F 32.1 °F 32.0 °F 81% 29.93 in 10.0 mi NW 6.9 mph - N/A   Overcast
7:10 PM 37.4 °F 33.8 °F 32.0 °F 81% 29.93 in 10.0 mi NW 4.6 mph - N/A   Overcast
7:30 PM 37.4 °F 33.8 °F 32.0 °F 81% 29.93 in 10.0 mi NNW 4.6 mph - N/A   Overcast
7:50 PM 35.6 °F 30.7 °F 32.0 °F 87% 29.93 in 10.0 mi NNW 5.8 mph - N/A   Overcast
8:10 PM 32.0 °F 25.6 °F 32.0 °F 100% 29.93 in 10.0 mi North 6.9 mph - N/A   Mostly Cloudy
8:30 PM 33.8 °F 28.6 °F 32.0 °F 93% 29.92 in 10.0 mi North 5.8 mph - N/A   Mostly Cloudy
8:50 PM 32.0 °F 26.4 °F 32.0 °F 100% 29.93 in 10.0 mi North 5.8 mph - N/A   Overcast
9:10 PM 33.8 °F 29.6 °F 32.0 °F 93% 29.92 in 10.0 mi NE 4.6 mph - N/A   Overcast
9:30 PM 33.8 °F 28.6 °F 32.0 °F 93% 29.92 in 10.0 mi ENE 5.8 mph - N/A   Mostly Cloudy
9:50 PM 35.6 °F 31.7 °F 32.0 °F 87% 29.93 in 10.0 mi ENE 4.6 mph - N/A   Mostly Cloudy
10:10 PM 35.6 °F 31.7 °F 32.0 °F 87% 29.93 in 10.0 mi ENE 4.6 mph - N/A   Mostly Cloudy
10:30 PM 35.6 °F 31.7 °F 32.0 °F 87% 29.93 in 10.0 mi ENE 4.6 mph - N/A   Overcast
10:50 PM 35.6 °F 29.9 °F 32.0 °F 87% 29.93 in 10.0 mi East 6.9 mph - N/A   Overcast
11:10 PM 35.6 °F 30.7 °F 32.0 °F 87% 29.93 in 10.0 mi East 5.8 mph - N/A   Overcast
11:30 PM 35.6 °F 32.8 °F 32.0 °F 87% 29.94 in 10.0 mi East 3.5 mph - N/A Snow Light Snow
11:50 PM 33.8 °F 25.8 °F 32.0 °F 93% 29.93 in 8.0 mi East 10.4 mph - N/A Snow Light Snow